createdAt,value
2022-08-18T00:02:06.590Z,14.77
2022-08-18T00:04:49.159Z,15.25
2022-08-18T00:07:24.613Z,15.60
2022-08-18T00:09:51.847Z,13.38
2022-08-18T00:12:25.295Z,14.23
2022-08-18T00:14:53.136Z,14.48
2022-08-18T00:17:20.738Z,14.52
2022-08-18T00:19:48.454Z,14.40
2022-08-18T00:22:19.700Z,13.60
2022-08-18T00:24:52.065Z,14.73
2022-08-18T00:27:23.234Z,13.35
2022-08-18T00:29:50.913Z,12.73
2022-08-18T00:32:26.166Z,15.15
2022-08-18T00:34:53.673Z,12.93
2022-08-18T00:37:21.540Z,13.75
2022-08-18T00:39:51.194Z,12.63
2022-08-18T00:42:30.017Z,12.73
2022-08-18T00:45:00.881Z,13.25
2022-08-18T00:47:32.987Z,14.33
2022-08-18T00:50:23.035Z,12.02
2022-08-18T00:53:03.789Z,12.75
2022-08-18T00:58:15.953Z,10.52
2022-08-18T01:00:44.707Z,11.85
2022-08-18T01:03:15.037Z,13.30
2022-08-18T01:06:01.998Z,11.40
2022-08-18T01:08:29.512Z,11.35
2022-08-18T01:10:58.907Z,11.50
2022-08-18T01:13:29.075Z,11.95
2022-08-18T01:15:55.920Z,12.10
2022-08-18T01:18:41.781Z,11.77
2022-08-18T01:21:39.756Z,11.32
2022-08-18T01:24:12.694Z,11.10
2022-08-18T01:26:49.751Z,10.40
2022-08-18T01:29:19.516Z,11.70
2022-08-18T01:31:54.327Z,13.13
2022-08-18T01:34:24.684Z,13.45
2022-08-18T01:36:53.033Z,12.98
2022-08-18T01:41:23.094Z,12.80
2022-08-18T01:42:06.502Z,11.35
2022-08-18T01:44:33.744Z,13.32
2022-08-18T01:47:00.256Z,11.68
2022-08-18T01:49:28.814Z,10.38
2022-08-18T01:51:58.171Z,10.57
2022-08-18T01:54:30.141Z,8.45
2022-08-18T01:56:57.313Z,7.32
2022-08-18T01:59:24.022Z,7.75
2022-08-18T02:01:52.997Z,7.72
2022-08-18T02:04:35.543Z,7.25
2022-08-18T02:07:05.968Z,9.00
2022-08-18T02:09:33.550Z,8.85
2022-08-18T02:12:01.226Z,7.43
2022-08-18T02:14:27.797Z,9.00
2022-08-18T02:17:01.287Z,9.73
2022-08-18T02:19:34.272Z,10.57
2022-08-18T02:22:01.146Z,7.65
2022-08-18T02:24:27.680Z,7.70
2022-08-18T02:26:54.290Z,7.95
2022-08-18T02:29:20.772Z,8.13
2022-08-18T02:31:47.233Z,7.35
2022-08-18T02:34:15.634Z,7.22
2022-08-18T02:36:42.241Z,7.57
2022-08-18T02:39:08.688Z,6.63
2022-08-18T02:41:36.893Z,9.00
2022-08-18T02:44:05.922Z,7.55
2022-08-18T02:46:32.444Z,8.63
2022-08-18T02:48:59.961Z,6.80
2022-08-18T02:51:26.903Z,7.20
2022-08-18T02:53:53.857Z,8.20
2022-08-18T02:56:33.725Z,6.85
2022-08-18T02:59:11.752Z,7.28
2022-08-18T03:01:41.250Z,8.00
2022-08-18T03:04:10.373Z,7.88
2022-08-18T03:06:39.108Z,8.02
2022-08-18T03:09:08.100Z,8.20
2022-08-18T03:11:35.761Z,8.05
2022-08-18T03:14:02.273Z,7.57
2022-08-18T03:16:31.429Z,7.53
2022-08-18T03:18:58.021Z,7.78
2022-08-18T03:21:26.523Z,9.10
2022-08-18T03:24:00.907Z,9.60
2022-08-18T03:26:30.091Z,8.45
2022-08-18T03:28:58.245Z,8.23
2022-08-18T03:31:27.725Z,8.57
2022-08-18T03:33:59.100Z,8.40
2022-08-18T03:36:29.263Z,8.32
2022-08-18T03:38:55.797Z,8.02
2022-08-18T03:41:44.485Z,7.43
2022-08-18T03:44:15.529Z,9.18
2022-08-18T03:46:44.445Z,8.18
2022-08-18T03:49:11.593Z,8.63
2022-08-18T03:51:38.449Z,8.50
2022-08-18T03:54:06.255Z,8.00
2022-08-18T03:56:36.278Z,8.68
2022-08-18T03:59:12.348Z,9.70
2022-08-18T04:01:41.971Z,10.10
2022-08-18T04:04:11.567Z,10.38
2022-08-18T04:06:43.683Z,10.57
2022-08-18T04:09:13.309Z,9.82
2022-08-18T04:11:44.423Z,10.50
2022-08-18T04:14:13.692Z,11.55
2022-08-18T04:16:41.307Z,9.90
2022-08-18T04:19:08.872Z,11.10
2022-08-18T04:21:38.296Z,10.52
2022-08-18T04:24:05.528Z,10.40
2022-08-18T04:26:33.759Z,9.68
2022-08-18T04:29:01.705Z,10.63
2022-08-18T04:31:29.478Z,9.40
2022-08-18T04:33:56.836Z,9.93
2022-08-18T04:36:23.861Z,9.23
2022-08-18T04:38:50.804Z,9.05
2022-08-18T04:41:17.322Z,11.68
2022-08-18T04:43:43.868Z,10.98
2022-08-18T04:46:11.292Z,10.45
2022-08-18T04:48:40.634Z,10.45
2022-08-18T04:52:30.935Z,9.10
2022-08-18T04:54:02.269Z,9.82
2022-08-18T04:56:33.590Z,10.60
2022-08-18T04:59:06.534Z,10.90
2022-08-18T05:01:41.619Z,11.43
2022-08-18T05:04:09.194Z,11.10
2022-08-18T05:06:36.032Z,14.43
2022-08-18T05:09:06.270Z,11.82
2022-08-18T05:11:34.565Z,14.95
2022-08-18T05:14:02.609Z,15.13
2022-08-18T05:16:30.037Z,16.30
2022-08-18T05:18:57.075Z,18.55
2022-08-18T05:21:25.213Z,19.05
2022-08-18T05:23:52.410Z,19.38
2022-08-18T05:26:19.313Z,24.50
2022-08-18T05:28:46.792Z,19.08
2022-08-18T05:31:20.593Z,21.85
2022-08-18T05:33:47.812Z,24.23
2022-08-18T05:36:38.614Z,21.20
2022-08-18T05:39:20.221Z,20.48
2022-08-18T05:42:06.038Z,21.85
2022-08-18T05:44:37.210Z,20.33
2022-08-18T05:47:13.664Z,20.58
2022-08-18T05:49:49.278Z,20.55
2022-08-18T05:53:03.970Z,22.52
2022-08-18T05:56:15.989Z,20.60
2022-08-18T05:58:49.385Z,21.70
2022-08-18T06:01:22.089Z,20.38
2022-08-18T06:03:59.712Z,21.75
2022-08-18T06:06:30.271Z,24.52
2022-08-18T06:09:19.940Z,18.92
2022-08-18T06:11:47.237Z,20.10
2022-08-18T06:14:13.755Z,18.90
2022-08-18T06:16:58.508Z,22.40
2022-08-18T06:20:02.190Z,20.02
2022-08-18T06:22:52.457Z,19.40
2022-08-18T06:25:33.100Z,17.10
2022-08-18T06:28:14.284Z,19.02
2022-08-18T06:30:56.627Z,17.48
2022-08-18T06:33:46.878Z,17.17
2022-08-18T06:36:22.477Z,18.48
2022-08-18T06:39:11.919Z,15.43
2022-08-18T06:41:43.801Z,14.95
2022-08-18T06:44:16.316Z,16.88
2022-08-18T06:46:53.667Z,13.55
2022-08-18T06:49:37.183Z,16.63
2022-08-18T06:52:21.917Z,13.77
2022-08-18T06:54:51.325Z,14.52
2022-08-18T06:57:40.265Z,11.32
2022-08-18T07:00:20.752Z,14.32
2022-08-18T07:02:53.147Z,13.77
2022-08-18T07:05:32.173Z,12.07
2022-08-18T07:08:29.709Z,11.02
2022-08-18T07:11:10.565Z,12.30
2022-08-18T07:13:40.380Z,9.45
2022-08-18T07:16:40.576Z,12.00
2022-08-18T07:19:12.746Z,10.38
2022-08-18T07:21:40.938Z,8.93
2022-08-18T07:24:24.789Z,8.75
2022-08-18T07:26:57.915Z,8.27
2022-08-18T07:29:24.428Z,7.22
2022-08-18T07:31:53.995Z,7.68
2022-08-18T07:34:41.170Z,9.70
2022-08-18T07:37:19.602Z,10.68
2022-08-18T07:40:01.239Z,11.68
2022-08-18T07:43:01.883Z,11.88
2022-08-18T07:48:34.336Z,7.90
2022-08-18T07:51:21.769Z,9.77
2022-08-18T07:53:56.019Z,10.02
2022-08-18T07:56:50.274Z,9.85
2022-08-18T07:59:23.423Z,7.90
2022-08-18T08:02:04.254Z,9.77
2022-08-18T08:07:26.215Z,8.57
2022-08-18T08:10:13.200Z,8.45
2022-08-18T08:12:50.420Z,9.63
2022-08-18T08:15:28.109Z,9.75
2022-08-18T08:18:13.512Z,10.00
2022-08-18T08:20:57.468Z,12.00
2022-08-18T08:23:46.753Z,13.65
2022-08-18T08:26:21.606Z,13.45
2022-08-18T08:29:00.848Z,14.20
2022-08-18T08:31:54.308Z,14.60
2022-08-18T08:34:44.110Z,15.73
2022-08-18T08:37:15.839Z,17.40
2022-08-18T08:39:57.797Z,16.00
2022-08-18T08:43:02.724Z,19.98
2022-08-18T08:45:36.910Z,19.45
2022-08-18T08:48:17.720Z,19.60
2022-08-18T08:53:26.813Z,17.65
2022-08-18T08:56:06.737Z,17.30
2022-08-18T08:58:42.010Z,18.40
2022-08-18T09:01:59.891Z,17.55
2022-08-18T09:04:32.229Z,17.23
2022-08-18T09:07:38.541Z,16.00
2022-08-18T09:10:39.746Z,16.58
2022-08-18T09:16:13.364Z,17.63
2022-08-18T09:18:56.071Z,16.23
2022-08-18T09:21:28.426Z,20.77
2022-08-18T09:24:26.275Z,17.70
2022-08-18T09:27:23.719Z,16.60
2022-08-18T09:29:57.751Z,16.35
2022-08-18T09:32:25.846Z,15.73
2022-08-18T09:34:58.272Z,16.58
2022-08-18T09:37:42.723Z,15.85
2022-08-18T09:40:59.365Z,14.55
2022-08-18T09:43:36.670Z,13.52
2022-08-18T09:46:06.093Z,18.30
2022-08-18T09:48:42.941Z,12.85
2022-08-18T09:51:20.729Z,12.55
2022-08-18T09:53:52.274Z,9.73
2022-08-18T09:56:53.462Z,10.77
2022-08-18T09:59:34.225Z,7.85
2022-08-18T10:02:11.606Z,8.63
2022-08-18T10:04:51.368Z,7.63
2022-08-18T10:07:43.266Z,7.70
2022-08-18T10:11:01.479Z,6.95
2022-08-18T10:13:33.899Z,8.00
2022-08-18T10:16:23.715Z,5.68
2022-08-18T10:22:10.696Z,6.13
2022-08-18T10:24:39.881Z,5.25
2022-08-18T10:27:13.161Z,6.10
2022-08-18T10:29:46.168Z,7.03
2022-08-18T10:32:14.038Z,5.75
2022-08-18T10:34:55.453Z,5.45
2022-08-18T10:37:36.372Z,5.72
2022-08-18T10:40:16.678Z,6.53
2022-08-18T10:42:53.182Z,6.05
2022-08-18T10:45:34.352Z,8.23
2022-08-18T10:48:24.374Z,6.32
2022-08-18T10:51:11.566Z,5.65
2022-08-18T10:53:48.101Z,6.25
2022-08-18T10:56:33.608Z,5.68
2022-08-18T10:59:15.936Z,4.90
2022-08-18T11:02:18.329Z,7.40
2022-08-18T11:04:59.154Z,4.95
2022-08-18T11:07:34.030Z,4.25
2022-08-18T11:10:29.522Z,5.00
2022-08-18T11:13:07.346Z,4.53
2022-08-18T11:15:56.882Z,4.47
2022-08-18T11:18:36.205Z,3.97
2022-08-18T11:21:22.225Z,4.38
2022-08-18T11:27:23.890Z,4.88
2022-08-18T11:29:51.605Z,5.15
2022-08-18T11:32:18.152Z,5.85
2022-08-18T11:34:52.977Z,5.88
2022-08-18T11:46:38.742Z,4.38
2022-08-18T11:49:23.995Z,5.38
2022-08-18T11:52:02.184Z,4.85
2022-08-18T11:57:54.384Z,5.50
2022-08-18T12:00:47.268Z,5.75
2022-08-18T12:03:19.694Z,4.97
2022-08-18T12:05:56.557Z,6.43
2022-08-18T12:11:46.044Z,4.47
2022-08-18T12:14:30.673Z,3.70
2022-08-18T12:17:02.535Z,3.88
2022-08-18T12:19:31.029Z,4.35
2022-08-18T12:22:00.320Z,3.60
2022-08-18T12:24:36.703Z,7.35
2022-08-18T12:27:12.393Z,3.80
2022-08-18T12:29:47.871Z,4.93
2022-08-18T12:32:18.070Z,4.53
2022-08-18T12:35:09.195Z,4.18
2022-08-18T12:40:24.293Z,4.18
2022-08-18T12:42:51.002Z,4.22
2022-08-18T12:45:17.718Z,5.07
2022-08-18T12:47:46.397Z,4.10
2022-08-18T12:50:12.941Z,3.17
2022-08-18T12:52:39.583Z,4.22
2022-08-18T12:55:21.362Z,5.63
2022-08-18T12:57:52.079Z,3.65
2022-08-18T13:00:21.155Z,3.95
2022-08-18T13:02:55.872Z,4.03
2022-08-18T13:05:27.414Z,3.60
2022-08-18T13:08:04.331Z,3.47
2022-08-18T13:10:44.932Z,4.40
2022-08-18T13:13:13.573Z,3.17
2022-08-18T13:15:44.368Z,3.20
2022-08-18T13:18:27.184Z,3.55
2022-08-18T13:20:57.558Z,3.33
2022-08-18T13:23:27.168Z,4.28
2022-08-18T13:25:59.360Z,3.92
2022-08-18T13:28:30.988Z,4.05
2022-08-18T13:31:04.150Z,3.45
2022-08-18T13:33:34.457Z,3.35
2022-08-18T13:36:19.645Z,4.35
2022-08-18T13:38:46.751Z,3.70
2022-08-18T13:41:15.789Z,4.40
2022-08-18T13:43:44.618Z,5.30
2022-08-18T13:46:18.396Z,4.30
2022-08-18T13:48:46.785Z,3.47
2022-08-18T13:51:22.116Z,3.45
2022-08-18T13:53:58.923Z,4.05
2022-08-18T13:56:33.282Z,3.50
2022-08-18T13:59:04.875Z,3.47
2022-08-18T14:01:45.400Z,3.70
2022-08-18T14:04:20.260Z,3.10
2022-08-18T14:06:56.277Z,3.22
2022-08-18T14:09:27.929Z,3.85
2022-08-18T14:12:28.267Z,3.80
2022-08-18T14:14:57.695Z,4.00
2022-08-18T14:17:25.537Z,3.47
2022-08-18T14:20:14.950Z,3.92
2022-08-18T14:23:09.001Z,3.15
2022-08-18T14:25:54.420Z,3.30
2022-08-18T14:28:24.913Z,4.30
2022-08-18T14:30:54.816Z,4.53
2022-08-18T14:33:34.018Z,10.00
2022-08-18T14:36:09.999Z,4.40
2022-08-18T14:38:36.714Z,4.50
2022-08-18T14:41:07.810Z,6.05
2022-08-18T14:43:50.816Z,4.88
2022-08-18T14:46:23.167Z,5.90
2022-08-18T14:48:57.035Z,4.60
2022-08-18T14:51:27.089Z,5.22
2022-08-18T14:53:54.314Z,4.07
2022-08-18T14:56:22.452Z,5.60
2022-08-18T14:58:51.002Z,4.85
2022-08-18T15:01:18.287Z,3.85
2022-08-18T15:03:44.789Z,3.33
2022-08-18T15:06:17.104Z,5.35
2022-08-18T15:08:49.439Z,6.32
2022-08-18T15:11:16.569Z,6.30
2022-08-18T15:13:46.492Z,6.07
2022-08-18T15:16:15.074Z,5.70
2022-08-18T15:18:43.546Z,4.57
2022-08-18T15:21:38.739Z,4.78
2022-08-18T15:24:24.840Z,4.20
2022-08-18T15:27:05.944Z,3.58
2022-08-18T15:29:36.894Z,3.65
2022-08-18T15:32:10.610Z,5.70
2022-08-18T15:34:47.371Z,6.22
2022-08-18T15:37:19.796Z,4.63
2022-08-18T15:39:55.545Z,4.70
2022-08-18T15:42:23.463Z,4.03
2022-08-18T15:44:52.593Z,5.20
2022-08-18T15:47:20.771Z,4.72
2022-08-18T15:49:47.832Z,4.63
2022-08-18T15:52:15.240Z,3.75
2022-08-18T15:54:44.464Z,4.75
2022-08-18T15:57:35.272Z,4.03
2022-08-18T16:00:04.621Z,4.88
2022-08-18T16:02:31.661Z,5.28
2022-08-18T16:05:01.922Z,6.30
2022-08-18T16:07:41.221Z,5.35
2022-08-18T16:10:12.670Z,6.90
2022-08-18T16:12:45.737Z,4.63
2022-08-18T16:17:39.975Z,4.88
2022-08-18T16:20:08.132Z,5.97
2022-08-18T16:22:37.829Z,7.32
2022-08-18T16:25:07.863Z,4.65
2022-08-18T16:27:36.027Z,5.78
2022-08-18T16:30:04.633Z,6.85
2022-08-18T16:32:32.001Z,5.60
2022-08-18T16:34:59.108Z,5.40
2022-08-18T16:37:27.069Z,5.75
2022-08-18T16:39:54.407Z,6.38
2022-08-18T16:42:20.969Z,5.57
2022-08-18T16:44:47.521Z,6.93
2022-08-18T16:47:17.602Z,6.15
2022-08-18T16:49:49.665Z,6.55
2022-08-18T16:52:17.443Z,6.22
2022-08-18T16:54:45.010Z,6.97
2022-08-18T16:57:11.761Z,6.22
2022-08-18T16:59:57.399Z,7.13
2022-08-18T17:02:43.141Z,5.45
2022-08-18T17:05:12.224Z,7.32
2022-08-18T17:07:38.879Z,6.63
2022-08-18T17:10:06.302Z,7.25
2022-08-18T17:12:32.922Z,6.72
2022-08-18T17:14:59.601Z,7.20
2022-08-18T17:17:26.083Z,6.45
2022-08-18T17:19:53.458Z,6.40
2022-08-18T17:22:20.297Z,6.72
2022-08-18T17:24:49.582Z,6.57
2022-08-18T17:27:26.703Z,5.32
2022-08-18T17:30:08.559Z,6.22
2022-08-18T17:32:49.149Z,6.35
2022-08-18T17:35:28.585Z,6.43
2022-08-18T17:38:21.955Z,7.45
2022-08-18T17:40:54.922Z,7.28
2022-08-18T17:43:25.006Z,8.85
2022-08-18T17:45:58.941Z,8.48
2022-08-18T17:48:42.130Z,7.82
2022-08-18T17:51:34.427Z,6.82
2022-08-18T17:54:11.952Z,8.47
2022-08-18T17:56:45.868Z,6.85
2022-08-18T17:59:45.524Z,7.55
2022-08-18T18:02:29.178Z,7.38
2022-08-18T18:04:58.773Z,8.82
2022-08-18T18:07:31.420Z,7.50
2022-08-18T18:10:10.338Z,8.05
2022-08-18T18:12:38.567Z,8.88
2022-08-18T18:15:09.061Z,8.73
2022-08-18T18:17:44.520Z,8.02
2022-08-18T18:20:16.327Z,8.82
2022-08-18T18:22:43.937Z,9.70
2022-08-18T18:25:12.894Z,10.35
2022-08-18T18:27:48.437Z,10.68
2022-08-18T18:30:25.012Z,9.73
2022-08-18T18:33:15.120Z,12.23
2022-08-18T18:35:54.874Z,11.35
2022-08-18T18:38:40.682Z,10.90
2022-08-18T18:41:12.855Z,10.88
2022-08-18T18:43:43.499Z,10.63
2022-08-18T18:46:24.820Z,11.13
2022-08-18T18:49:09.598Z,11.68
2022-08-18T18:52:03.546Z,10.65
2022-08-18T18:54:51.013Z,10.88
2022-08-18T18:57:31.885Z,11.98
2022-08-18T19:03:10.945Z,10.93
2022-08-18T19:05:56.631Z,11.65
2022-08-18T19:08:35.882Z,11.10
2022-08-18T19:11:10.416Z,11.63
2022-08-18T19:13:46.413Z,11.52
2022-08-18T19:16:37.514Z,11.15
2022-08-18T19:19:37.834Z,11.60
2022-08-18T19:22:25.464Z,9.07
2022-08-18T19:25:13.464Z,10.45
2022-08-18T19:27:50.634Z,10.43
2022-08-18T19:30:18.938Z,11.25
2022-08-18T19:32:49.689Z,10.65
2022-08-18T19:35:21.748Z,11.25
2022-08-18T19:38:01.952Z,11.68
2022-08-18T19:41:13.059Z,10.32
2022-08-18T19:43:57.897Z,12.43
2022-08-18T19:46:34.714Z,11.38
2022-08-18T19:49:07.191Z,11.00
2022-08-18T19:51:40.009Z,11.02
2022-08-18T19:54:20.397Z,10.00
2022-08-18T19:57:08.546Z,11.70
2022-08-18T19:59:49.725Z,11.05
2022-08-18T20:02:35.015Z,10.13
2022-08-18T20:05:34.019Z,12.43
2022-08-18T20:08:25.691Z,12.32
2022-08-18T20:11:08.024Z,11.32
2022-08-18T20:13:43.626Z,11.20
2022-08-18T20:16:35.487Z,12.80
2022-08-18T20:19:38.573Z,13.00
2022-08-18T20:22:15.961Z,11.85
2022-08-18T20:24:57.401Z,12.20
2022-08-18T20:30:20.464Z,11.88
2022-08-18T20:33:22.431Z,11.95
2022-08-18T20:35:51.933Z,12.07
2022-08-18T20:38:35.490Z,12.55
2022-08-18T20:41:28.126Z,12.07
2022-08-18T20:44:13.453Z,14.52
2022-08-18T20:47:07.092Z,12.93
2022-08-18T20:49:49.376Z,12.85
2022-08-18T20:52:38.596Z,14.63
2022-08-18T20:55:16.378Z,14.02
2022-08-18T20:57:44.087Z,14.32
2022-08-18T21:00:26.993Z,14.68
2022-08-18T21:02:59.083Z,14.35
2022-08-18T21:05:35.227Z,15.73
2022-08-18T21:08:26.371Z,15.35
2022-08-18T21:10:54.515Z,17.15
2022-08-18T21:13:40.901Z,17.17
2022-08-18T21:16:13.124Z,16.73
2022-08-18T21:19:02.626Z,16.33
2022-08-18T21:21:32.586Z,17.45
2022-08-18T21:24:02.886Z,18.77
2022-08-18T21:26:32.352Z,16.35
2022-08-18T21:29:06.469Z,18.25
2022-08-18T21:31:44.271Z,16.35
2022-08-18T21:34:18.433Z,15.63
2022-08-18T21:36:52.151Z,15.95
2022-08-18T21:39:20.336Z,17.48
2022-08-18T21:41:50.578Z,16.67
2022-08-18T21:44:42.372Z,17.13
2022-08-18T21:47:20.076Z,16.40
2022-08-18T21:50:08.239Z,16.20
2022-08-18T21:52:37.721Z,13.90
2022-08-18T21:55:19.370Z,14.63
2022-08-18T21:58:06.060Z,15.02
2022-08-18T22:00:38.233Z,15.68
2022-08-18T22:03:20.518Z,15.32
2022-08-18T22:06:24.208Z,16.42
2022-08-18T22:09:20.917Z,15.15
2022-08-18T22:12:06.468Z,16.27
2022-08-18T22:14:53.832Z,16.05
2022-08-18T22:17:34.395Z,15.18
2022-08-18T22:20:38.516Z,15.10
2022-08-18T22:23:32.774Z,15.50
2022-08-18T22:26:14.213Z,14.07
2022-08-18T22:28:58.397Z,13.65
2022-08-18T22:31:32.504Z,13.85
2022-08-18T22:34:16.402Z,12.45
2022-08-18T22:36:52.705Z,13.40
2022-08-18T22:39:30.280Z,15.20
2022-08-18T22:41:57.685Z,13.73
2022-08-18T22:44:24.751Z,14.05
2022-08-18T22:46:52.586Z,13.15
2022-08-18T22:49:19.984Z,12.50
2022-08-18T22:51:48.384Z,12.45
2022-08-18T22:54:15.850Z,11.63
2022-08-18T22:56:53.823Z,12.00
2022-08-18T22:59:23.520Z,11.65
2022-08-18T23:01:51.057Z,13.25
2022-08-18T23:04:20.165Z,12.48
2022-08-18T23:06:52.022Z,13.02
2022-08-18T23:09:21.260Z,12.60
2022-08-18T23:11:47.821Z,13.10
2022-08-18T23:14:14.801Z,12.65
2022-08-18T23:16:45.323Z,11.93
2022-08-18T23:19:14.259Z,11.50
2022-08-18T23:21:41.641Z,11.77
2022-08-18T23:24:10.204Z,11.88
2022-08-18T23:26:37.289Z,11.98
2022-08-18T23:29:11.365Z,12.35
2022-08-18T23:31:39.636Z,11.48
2022-08-18T23:34:06.403Z,11.70
2022-08-18T23:36:34.186Z,10.75
2022-08-18T23:39:00.858Z,11.38
2022-08-18T23:41:27.396Z,10.95
2022-08-18T23:43:53.954Z,9.85
2022-08-18T23:46:25.666Z,10.50
2022-08-18T23:48:52.832Z,10.07
2022-08-18T23:51:43.217Z,9.15
2022-08-18T23:54:13.269Z,9.15
2022-08-18T23:56:39.769Z,8.98
2022-08-18T23:59:08.190Z,9.50
